N515MR KEGE-KAPA
Flight info
| Callsign | N515MR |
|---|---|
| Flight time | 0h 51m |
| Altitude | 19000 |
| Route | GYPSM6 RLG MOLTN AUTIM TOMSN BJC |
| Aircraft | B58T/L-SDFGRY/C |
Departure
| Time | 2026-04-21 17:16 |
|---|---|
| Airport | Eagle County Regional Airport (KEGE) |
Arrival
| Time | 2026-04-21 18:08 |
|---|---|
| Airport | Centennial Airport (KAPA) |
| Time | Latitude | Longitude | Altitude | Speed | Heading |
|---|---|---|---|---|---|
| 2026-04-21 17:11 | 39.64141 | -106.91077 | 6496 ft | 0 kts | 263° |
| 2026-04-21 17:13 | 39.64139 | -106.91087 | 6496 ft | 8 kts | 258° |
| 2026-04-21 17:13 | 39.64167 | -106.91099 | 6496 ft | 9 kts | 64° |
| 2026-04-21 17:13 | 39.64187 | -106.90956 | 6501 ft | 20 kts | 51° |
| 2026-04-21 17:14 | 39.64253 | -106.90818 | 6506 ft | 19 kts | 81° |
| 2026-04-21 17:14 | 39.64273 | -106.90638 | 6513 ft | 21 kts | 81° |
| 2026-04-21 17:14 | 39.64293 | -106.90446 | 6520 ft | 22 kts | 82° |
| 2026-04-21 17:14 | 39.64315 | -106.90257 | 6526 ft | 19 kts | 83° |
| 2026-04-21 17:15 | 39.64331 | -106.90098 | 6532 ft | 20 kts | 82° |
| 2026-04-21 17:15 | 39.64396 | -106.90016 | 6535 ft | 12 kts | 345° |
| 2026-04-21 17:15 | 39.64431 | -106.90055 | 6536 ft | 8 kts | 308° |
| 2026-04-21 17:15 | 39.64422 | -106.90277 | 6529 ft | 60 kts | 262° |
| 2026-04-21 17:16 | 39.64320 | -106.91154 | 6526 ft | 127 kts | 259° |
| 2026-04-21 17:16 | 39.64165 | -106.92394 | 6743 ft | 148 kts | 261° |
| 2026-04-21 17:16 | 39.64032 | -106.93726 | 7275 ft | 148 kts | 262° |
| 2026-04-21 17:16 | 39.63641 | -106.94945 | 7815 ft | 151 kts | 225° |
| 2026-04-21 17:17 | 39.62856 | -106.95865 | 8280 ft | 154 kts | 228° |
| 2026-04-21 17:17 | 39.62176 | -106.96960 | 8723 ft | 157 kts | 231° |
| 2026-04-21 17:17 | 39.61483 | -106.98047 | 9150 ft | 156 kts | 229° |
| 2026-04-21 17:17 | 39.60874 | -106.99216 | 9573 ft | 160 kts | 250° |
| 2026-04-21 17:18 | 39.60821 | -107.00626 | 9986 ft | 163 kts | 282° |
| 2026-04-21 17:18 | 39.61381 | -107.01905 | 10367 ft | 170 kts | 315° |
| 2026-04-21 17:18 | 39.62436 | -107.02663 | 10759 ft | 178 kts | 337° |
| 2026-04-21 17:18 | 39.63594 | -107.03255 | 11134 ft | 178 kts | 336° |
| 2026-04-21 17:19 | 39.64745 | -107.03861 | 11527 ft | 180 kts | 335° |
| 2026-04-21 17:19 | 39.65918 | -107.04477 | 11924 ft | 184 kts | 336° |
| 2026-04-21 17:19 | 39.67120 | -107.05105 | 12312 ft | 188 kts | 335° |
| 2026-04-21 17:19 | 39.68338 | -107.05742 | 12713 ft | 190 kts | 335° |
| 2026-04-21 17:20 | 39.69567 | -107.06384 | 13114 ft | 190 kts | 336° |
| 2026-04-21 17:20 | 39.70797 | -107.07029 | 13521 ft | 192 kts | 335° |
| 2026-04-21 17:20 | 39.72037 | -107.07683 | 13924 ft | 193 kts | 335° |
| 2026-04-21 17:20 | 39.73278 | -107.08332 | 14298 ft | 193 kts | 337° |
| 2026-04-21 17:21 | 39.74597 | -107.08616 | 14662 ft | 196 kts | 1° |
| 2026-04-21 17:21 | 39.75920 | -107.08176 | 15028 ft | 199 kts | 25° |
| 2026-04-21 17:21 | 39.77011 | -107.07072 | 15413 ft | 201 kts | 50° |
| 2026-04-21 17:21 | 39.77709 | -107.05507 | 15800 ft | 201 kts | 66° |
| 2026-04-21 17:22 | 39.78108 | -107.04420 | 16061 ft | 202 kts | 65° |
| 2026-04-21 17:22 | 39.78933 | -107.02220 | 16596 ft | 203 kts | 65° |
| 2026-04-21 17:22 | 39.79550 | -107.00557 | 16954 ft | 208 kts | 65° |
| 2026-04-21 17:22 | 39.80205 | -106.98781 | 16970 ft | 226 kts | 65° |
| 2026-04-21 17:23 | 39.80900 | -106.96905 | 16968 ft | 239 kts | 65° |
| 2026-04-21 17:23 | 39.81636 | -106.94918 | 16971 ft | 247 kts | 65° |
| 2026-04-21 17:23 | 39.82384 | -106.92911 | 16963 ft | 246 kts | 65° |
| 2026-04-21 17:23 | 39.83128 | -106.90905 | 16953 ft | 246 kts | 65° |
| 2026-04-21 17:24 | 39.83869 | -106.88908 | 16951 ft | 245 kts | 65° |
| 2026-04-21 17:24 | 39.84601 | -106.86921 | 16943 ft | 242 kts | 65° |
| 2026-04-21 17:24 | 39.85331 | -106.84951 | 16937 ft | 242 kts | 65° |
| 2026-04-21 17:24 | 39.86060 | -106.82979 | 16933 ft | 241 kts | 65° |
| 2026-04-21 17:25 | 39.86788 | -106.81008 | 16925 ft | 241 kts | 65° |
| 2026-04-21 17:25 | 39.87516 | -106.79040 | 16915 ft | 241 kts | 65° |
| 2026-04-21 17:25 | 39.88240 | -106.77074 | 16910 ft | 240 kts | 65° |
| 2026-04-21 17:25 | 39.88963 | -106.75113 | 16902 ft | 239 kts | 65° |
| 2026-04-21 17:26 | 39.89682 | -106.73154 | 16894 ft | 240 kts | 65° |
| 2026-04-21 17:26 | 39.90405 | -106.71187 | 16887 ft | 241 kts | 65° |
| 2026-04-21 17:26 | 39.91131 | -106.69217 | 16881 ft | 242 kts | 65° |
| 2026-04-21 17:26 | 39.91858 | -106.67237 | 16876 ft | 242 kts | 65° |
| 2026-04-21 17:27 | 39.92573 | -106.65285 | 16867 ft | 242 kts | 65° |
| 2026-04-21 17:27 | 39.93307 | -106.63295 | 16861 ft | 243 kts | 65° |
| 2026-04-21 17:27 | 39.94034 | -106.61311 | 16859 ft | 243 kts | 65° |
| 2026-04-21 17:27 | 39.94761 | -106.59323 | 16865 ft | 242 kts | 65° |
| 2026-04-21 17:28 | 39.95489 | -106.57334 | 16859 ft | 243 kts | 65° |
| 2026-04-21 17:28 | 39.96218 | -106.55351 | 16860 ft | 242 kts | 65° |
| 2026-04-21 17:28 | 39.96945 | -106.53365 | 16859 ft | 243 kts | 65° |
| 2026-04-21 17:28 | 39.97672 | -106.51374 | 16857 ft | 242 kts | 65° |
| 2026-04-21 17:29 | 39.98395 | -106.49391 | 16861 ft | 243 kts | 65° |
| 2026-04-21 17:29 | 39.99113 | -106.47424 | 16861 ft | 244 kts | 65° |
| 2026-04-21 17:29 | 39.99860 | -106.45402 | 16862 ft | 245 kts | 62° |
| 2026-04-21 17:29 | 40.00906 | -106.43659 | 16857 ft | 244 kts | 42° |
| 2026-04-21 17:30 | 40.02226 | -106.42323 | 16860 ft | 243 kts | 36° |
| 2026-04-21 17:30 | 40.03576 | -106.40991 | 16864 ft | 243 kts | 37° |
| 2026-04-21 17:30 | 40.04924 | -106.39648 | 16862 ft | 243 kts | 37° |
| 2026-04-21 17:30 | 40.06271 | -106.38315 | 16865 ft | 243 kts | 36° |
| 2026-04-21 17:31 | 40.07619 | -106.36982 | 16872 ft | 243 kts | 36° |
| 2026-04-21 17:31 | 40.08964 | -106.35651 | 16879 ft | 242 kts | 37° |
| 2026-04-21 17:31 | 40.10307 | -106.34319 | 16886 ft | 242 kts | 37° |
| 2026-04-21 17:31 | 40.11644 | -106.32991 | 16891 ft | 241 kts | 37° |
| 2026-04-21 17:32 | 40.12531 | -106.32111 | 16899 ft | 241 kts | 37° |
| 2026-04-21 17:32 | 40.14317 | -106.30337 | 16907 ft | 241 kts | 36° |
| 2026-04-21 17:32 | 40.15659 | -106.29008 | 16908 ft | 242 kts | 37° |
| 2026-04-21 17:32 | 40.16980 | -106.27689 | 16915 ft | 242 kts | 37° |
| 2026-04-21 17:33 | 40.18330 | -106.26344 | 16916 ft | 244 kts | 36° |
| 2026-04-21 17:33 | 40.19683 | -106.25007 | 16917 ft | 243 kts | 37° |
| 2026-04-21 17:33 | 40.21030 | -106.23660 | 16924 ft | 243 kts | 37° |
| 2026-04-21 17:33 | 40.22376 | -106.22317 | 16920 ft | 243 kts | 36° |
| 2026-04-21 17:34 | 40.23732 | -106.20970 | 16925 ft | 245 kts | 37° |
| 2026-04-21 17:34 | 40.25085 | -106.19621 | 16930 ft | 244 kts | 37° |
| 2026-04-21 17:34 | 40.26435 | -106.18268 | 16921 ft | 245 kts | 37° |
| 2026-04-21 17:34 | 40.27793 | -106.16917 | 16917 ft | 245 kts | 36° |
| 2026-04-21 17:35 | 40.29146 | -106.15569 | 16927 ft | 245 kts | 37° |
| 2026-04-21 17:35 | 40.30503 | -106.14208 | 16915 ft | 245 kts | 37° |
| 2026-04-21 17:35 | 40.31846 | -106.12865 | 16915 ft | 247 kts | 36° |
| 2026-04-21 17:35 | 40.33219 | -106.11493 | 16901 ft | 248 kts | 37° |
| 2026-04-21 17:36 | 40.34583 | -106.10128 | 16898 ft | 245 kts | 37° |
| 2026-04-21 17:36 | 40.35939 | -106.08769 | 16895 ft | 245 kts | 37° |
| 2026-04-21 17:36 | 40.37291 | -106.07418 | 16882 ft | 244 kts | 37° |
| 2026-04-21 17:36 | 40.38638 | -106.06067 | 16883 ft | 244 kts | 37° |
| 2026-04-21 17:37 | 40.39986 | -106.04716 | 16873 ft | 244 kts | 37° |
| 2026-04-21 17:37 | 40.41337 | -106.03358 | 16859 ft | 244 kts | 37° |
| 2026-04-21 17:37 | 40.42230 | -106.02461 | 16852 ft | 243 kts | 37° |
| 2026-04-21 17:37 | 40.44023 | -106.00662 | 16845 ft | 243 kts | 37° |
| 2026-04-21 17:38 | 40.45375 | -105.99301 | 16845 ft | 245 kts | 37° |
| 2026-04-21 17:38 | 40.46727 | -105.97943 | 16838 ft | 245 kts | 37° |
| 2026-04-21 17:38 | 40.48077 | -105.96593 | 16842 ft | 244 kts | 37° |
| 2026-04-21 17:38 | 40.49408 | -105.95247 | 16832 ft | 245 kts | 37° |
| 2026-04-21 17:39 | 40.50758 | -105.93879 | 16843 ft | 246 kts | 37° |
| 2026-04-21 17:39 | 40.52120 | -105.92508 | 16825 ft | 247 kts | 37° |
| 2026-04-21 17:39 | 40.53483 | -105.91144 | 16824 ft | 245 kts | 37° |
| 2026-04-21 17:39 | 40.54840 | -105.89774 | 16824 ft | 247 kts | 37° |
| 2026-04-21 17:40 | 40.56202 | -105.88393 | 16821 ft | 246 kts | 37° |
| 2026-04-21 17:40 | 40.57101 | -105.87489 | 16821 ft | 245 kts | 37° |
| 2026-04-21 17:40 | 40.58459 | -105.86124 | 16820 ft | 246 kts | 37° |
| 2026-04-21 17:40 | 40.59817 | -105.84750 | 16817 ft | 246 kts | 38° |
| 2026-04-21 17:41 | 40.61167 | -105.83375 | 16810 ft | 244 kts | 38° |
| 2026-04-21 17:41 | 40.62518 | -105.82008 | 16818 ft | 247 kts | 37° |
| 2026-04-21 17:41 | 40.63893 | -105.80625 | 16809 ft | 250 kts | 38° |
| 2026-04-21 17:41 | 40.65268 | -105.79232 | 16808 ft | 249 kts | 37° |
| 2026-04-21 17:42 | 40.66639 | -105.77841 | 16799 ft | 247 kts | 37° |
| 2026-04-21 17:42 | 40.67996 | -105.76466 | 16794 ft | 245 kts | 37° |
| 2026-04-21 17:42 | 40.69345 | -105.75098 | 16792 ft | 244 kts | 38° |
| 2026-04-21 17:42 | 40.70693 | -105.73729 | 16783 ft | 245 kts | 37° |
| 2026-04-21 17:43 | 40.72043 | -105.72356 | 16782 ft | 246 kts | 38° |
| 2026-04-21 17:43 | 40.73356 | -105.70916 | 16779 ft | 247 kts | 48° |
| 2026-04-21 17:43 | 40.74294 | -105.69075 | 16776 ft | 244 kts | 66° |
| 2026-04-21 17:43 | 40.74771 | -105.66950 | 16766 ft | 241 kts | 85° |
| 2026-04-21 17:44 | 40.74876 | -105.64747 | 16770 ft | 241 kts | 89° |
| 2026-04-21 17:44 | 40.74981 | -105.62535 | 16773 ft | 242 kts | 88° |
| 2026-04-21 17:44 | 40.75090 | -105.60321 | 16772 ft | 241 kts | 88° |
| 2026-04-21 17:44 | 40.75188 | -105.58102 | 16661 ft | 246 kts | 89° |
| 2026-04-21 17:45 | 40.75092 | -105.55838 | 16432 ft | 250 kts | 105° |
| 2026-04-21 17:45 | 40.74446 | -105.53713 | 16210 ft | 251 kts | 123° |
| 2026-04-21 17:45 | 40.73339 | -105.51941 | 15981 ft | 250 kts | 141° |
| 2026-04-21 17:45 | 40.71878 | -105.50719 | 15769 ft | 249 kts | 160° |
| 2026-04-21 17:46 | 40.70213 | -105.50143 | 15554 ft | 249 kts | 175° |
| 2026-04-21 17:46 | 40.68498 | -105.49839 | 15333 ft | 249 kts | 174° |
| 2026-04-21 17:46 | 40.66784 | -105.49513 | 15124 ft | 249 kts | 174° |
| 2026-04-21 17:46 | 40.65075 | -105.49188 | 14916 ft | 249 kts | 174° |
| 2026-04-21 17:47 | 40.63378 | -105.48872 | 14703 ft | 248 kts | 174° |
| 2026-04-21 17:47 | 40.61666 | -105.48553 | 14479 ft | 248 kts | 174° |
| 2026-04-21 17:47 | 40.59961 | -105.48231 | 14274 ft | 247 kts | 174° |
| 2026-04-21 17:47 | 40.58248 | -105.47911 | 14077 ft | 249 kts | 174° |
| 2026-04-21 17:48 | 40.56528 | -105.47586 | 13860 ft | 249 kts | 174° |
| 2026-04-21 17:48 | 40.54818 | -105.47264 | 13631 ft | 247 kts | 174° |
| 2026-04-21 17:48 | 40.53120 | -105.46947 | 13395 ft | 244 kts | 174° |
| 2026-04-21 17:48 | 40.51464 | -105.46639 | 13173 ft | 243 kts | 174° |
| 2026-04-21 17:49 | 40.49789 | -105.46325 | 12952 ft | 243 kts | 174° |
| 2026-04-21 17:49 | 40.48111 | -105.46010 | 12743 ft | 245 kts | 173° |
| 2026-04-21 17:49 | 40.46417 | -105.45695 | 12498 ft | 245 kts | 174° |
| 2026-04-21 17:49 | 40.44736 | -105.45384 | 12301 ft | 243 kts | 174° |
| 2026-04-21 17:50 | 40.43069 | -105.45076 | 12057 ft | 241 kts | 174° |
| 2026-04-21 17:50 | 40.41413 | -105.44762 | 11834 ft | 240 kts | 173° |
| 2026-04-21 17:50 | 40.39761 | -105.44452 | 11779 ft | 238 kts | 174° |
| 2026-04-21 17:50 | 40.38148 | -105.44150 | 11804 ft | 230 kts | 174° |
| 2026-04-21 17:51 | 40.36570 | -105.43850 | 11777 ft | 226 kts | 174° |
| 2026-04-21 17:51 | 40.35076 | -105.43291 | 11808 ft | 224 kts | 155° |
| 2026-04-21 17:51 | 40.33688 | -105.42331 | 11788 ft | 225 kts | 154° |
| 2026-04-21 17:51 | 40.32293 | -105.41399 | 11800 ft | 227 kts | 155° |
| 2026-04-21 17:52 | 40.30894 | -105.40464 | 11797 ft | 222 kts | 154° |
| 2026-04-21 17:52 | 40.29536 | -105.39542 | 11808 ft | 218 kts | 154° |
| 2026-04-21 17:52 | 40.28178 | -105.38619 | 11810 ft | 221 kts | 155° |
| 2026-04-21 17:52 | 40.26824 | -105.37707 | 11816 ft | 215 kts | 155° |
| 2026-04-21 17:53 | 40.25494 | -105.36813 | 11815 ft | 216 kts | 155° |
| 2026-04-21 17:53 | 40.24155 | -105.35913 | 11824 ft | 217 kts | 154° |
| 2026-04-21 17:53 | 40.22810 | -105.35007 | 11833 ft | 218 kts | 154° |
| 2026-04-21 17:53 | 40.21468 | -105.34101 | 11824 ft | 216 kts | 154° |
| 2026-04-21 17:54 | 40.20134 | -105.33203 | 11844 ft | 214 kts | 155° |
| 2026-04-21 17:54 | 40.18800 | -105.32304 | 11848 ft | 216 kts | 155° |
| 2026-04-21 17:54 | 40.17485 | -105.31420 | 11843 ft | 214 kts | 155° |
| 2026-04-21 17:54 | 40.16157 | -105.30524 | 11851 ft | 215 kts | 155° |
| 2026-04-21 17:55 | 40.14831 | -105.29637 | 11849 ft | 214 kts | 154° |
| 2026-04-21 17:55 | 40.13505 | -105.28747 | 11851 ft | 214 kts | 154° |
| 2026-04-21 17:55 | 40.12182 | -105.27857 | 11839 ft | 214 kts | 155° |
| 2026-04-21 17:55 | 40.10850 | -105.26964 | 11843 ft | 215 kts | 154° |
| 2026-04-21 17:56 | 40.09517 | -105.26071 | 11841 ft | 214 kts | 154° |
| 2026-04-21 17:56 | 40.08189 | -105.25179 | 11843 ft | 215 kts | 155° |
| 2026-04-21 17:56 | 40.06858 | -105.24290 | 11843 ft | 215 kts | 154° |
| 2026-04-21 17:56 | 40.05527 | -105.23396 | 11839 ft | 215 kts | 155° |
| 2026-04-21 17:57 | 40.04198 | -105.22501 | 11832 ft | 215 kts | 154° |
| 2026-04-21 17:57 | 40.02868 | -105.21613 | 11844 ft | 214 kts | 155° |
| 2026-04-21 17:57 | 40.01534 | -105.20726 | 11841 ft | 216 kts | 154° |
| 2026-04-21 17:57 | 40.00213 | -105.19841 | 11849 ft | 218 kts | 154° |
| 2026-04-21 17:58 | 39.98846 | -105.18928 | 11854 ft | 218 kts | 155° |
| 2026-04-21 17:58 | 39.97508 | -105.18034 | 11840 ft | 218 kts | 154° |
| 2026-04-21 17:58 | 39.96168 | -105.17135 | 11847 ft | 216 kts | 155° |
| 2026-04-21 17:58 | 39.94832 | -105.16241 | 11840 ft | 216 kts | 154° |
| 2026-04-21 17:59 | 39.93499 | -105.15355 | 11811 ft | 213 kts | 154° |
| 2026-04-21 17:59 | 39.92178 | -105.14478 | 11870 ft | 213 kts | 155° |
| 2026-04-21 17:59 | 39.90860 | -105.13586 | 11868 ft | 214 kts | 150° |
| 2026-04-21 17:59 | 39.89723 | -105.12321 | 11868 ft | 216 kts | 137° |
| 2026-04-21 18:00 | 39.88668 | -105.10927 | 11799 ft | 219 kts | 137° |
| 2026-04-21 18:00 | 39.87559 | -105.09526 | 11579 ft | 226 kts | 138° |
| 2026-04-21 18:00 | 39.86413 | -105.08070 | 11383 ft | 233 kts | 137° |
| 2026-04-21 18:00 | 39.85251 | -105.06569 | 11167 ft | 236 kts | 136° |
| 2026-04-21 18:01 | 39.84086 | -105.05070 | 10979 ft | 237 kts | 136° |
| 2026-04-21 18:01 | 39.82912 | -105.03566 | 10753 ft | 236 kts | 136° |
| 2026-04-21 18:01 | 39.81731 | -105.02054 | 10528 ft | 239 kts | 136° |
| 2026-04-21 18:01 | 39.80549 | -105.00538 | 10302 ft | 238 kts | 135° |
| 2026-04-21 18:02 | 39.79377 | -104.99029 | 10080 ft | 236 kts | 135° |
| 2026-04-21 18:02 | 39.78223 | -104.97524 | 9844 ft | 234 kts | 136° |
| 2026-04-21 18:02 | 39.77059 | -104.96058 | 9513 ft | 236 kts | 136° |
| 2026-04-21 18:02 | 39.75879 | -104.94560 | 9191 ft | 238 kts | 135° |
| 2026-04-21 18:03 | 39.74703 | -104.93055 | 8884 ft | 237 kts | 135° |
| 2026-04-21 18:03 | 39.73524 | -104.91545 | 8578 ft | 237 kts | 136° |
| 2026-04-21 18:03 | 39.72386 | -104.90100 | 8265 ft | 218 kts | 135° |
| 2026-04-21 18:03 | 39.71329 | -104.88747 | 7948 ft | 207 kts | 135° |
| 2026-04-21 18:04 | 39.70376 | -104.87533 | 7663 ft | 177 kts | 135° |
| 2026-04-21 18:04 | 39.69567 | -104.86497 | 7646 ft | 158 kts | 134° |
| 2026-04-21 18:04 | 39.68657 | -104.85722 | 7639 ft | 156 kts | 161° |
| 2026-04-21 18:04 | 39.67584 | -104.85547 | 7575 ft | 156 kts | 177° |
| 2026-04-21 18:05 | 39.66522 | -104.85522 | 7395 ft | 143 kts | 177° |
| 2026-04-21 18:05 | 39.65622 | -104.85486 | 7236 ft | 120 kts | 178° |
| 2026-04-21 18:05 | 39.64807 | -104.85447 | 7075 ft | 117 kts | 174° |
| 2026-04-21 18:05 | 39.64015 | -104.85394 | 6948 ft | 111 kts | 174° |
| 2026-04-21 18:06 | 39.63263 | -104.85356 | 6811 ft | 108 kts | 175° |
| 2026-04-21 18:06 | 39.62494 | -104.85321 | 6685 ft | 116 kts | 178° |
| 2026-04-21 18:06 | 39.61665 | -104.85293 | 6531 ft | 117 kts | 176° |
| 2026-04-21 18:06 | 39.60869 | -104.85260 | 6355 ft | 116 kts | 178° |
| 2026-04-21 18:07 | 39.60081 | -104.85227 | 6157 ft | 112 kts | 177° |
| 2026-04-21 18:07 | 39.59312 | -104.85183 | 6033 ft | 111 kts | 176° |
| 2026-04-21 18:07 | 39.58563 | -104.85154 | 5856 ft | 103 kts | 178° |
| 2026-04-21 18:07 | 39.57957 | -104.85118 | 5809 ft | 68 kts | 179° |
| 2026-04-21 18:08 | 39.57555 | -104.85109 | 5827 ft | 41 kts | 178° |
| 2026-04-21 18:08 | 39.57430 | -104.85023 | 5833 ft | 15 kts | 87° |
| 2026-04-21 18:08 | 39.57518 | -104.84966 | 5827 ft | 22 kts | 359° |
| 2026-04-21 18:08 | 39.57692 | -104.84975 | 5820 ft | 25 kts | 355° |
| 2026-04-21 18:09 | 39.57857 | -104.84992 | 5813 ft | 22 kts | 14° |
| 2026-04-21 18:09 | 39.57947 | -104.84852 | 5813 ft | 19 kts | 54° |
| 2026-04-21 18:09 | 39.57989 | -104.84767 | 5807 ft | 15 kts | 69° |
| 2026-04-21 18:09 | 39.58023 | -104.84747 | 5810 ft | 0 kts | 359° |